Time;durP1;ratioP1;P1;durP2;ratioP2;P2;SDS_P1;SDS_P2;PMS_P1;PMS_P2;Temp;Humidity;BMP_temperature;BMP_pressure;BME280_temperature;BME280_humidity;BME280_pressure;Samples;Min_cycle;Max_cycle;Signal;HPM_P1;HPM_P2
2023/05/18 00:00:09;;;;;;;10.30;2.00;;;7.40;99.90;;;;;;5131834;27;20434;-53
2023/05/18 00:02:36;;;;;;;7.32;1.90;;;7.40;99.90;;;;;;5131750;27;20118;-51
2023/05/18 00:05:03;;;;;;;11.20;2.08;;;7.40;99.90;;;;;;5131781;27;20050;-57
2023/05/18 00:07:32;;;;;;;7.60;1.90;;;7.40;99.90;;;;;;5132040;27;20043;-56
2023/05/18 00:10:00;;;;;;;10.02;1.90;;;7.30;99.90;;;;;;5131906;27;20095;-55
2023/05/18 00:12:25;;;;;;;8.30;2.47;;;7.20;99.90;;;;;;5131900;27;20078;-54
2023/05/18 00:14:51;;;;;;;7.80;1.73;;;7.30;99.90;;;;;;5131681;27;20078;-53
2023/05/18 00:17:19;;;;;;;7.00;1.95;;;7.30;99.90;;;;;;5131685;27;20031;-55
2023/05/18 00:19:45;;;;;;;4.20;1.67;;;7.30;99.90;;;;;;5131898;27;20368;-57
2023/05/18 00:22:17;;;;;;;7.70;1.90;;;7.20;99.90;;;;;;5131586;27;20100;-53
2023/05/18 00:24:47;;;;;;;9.23;1.95;;;7.20;99.90;;;;;;5131677;27;20078;-56
2023/05/18 00:27:13;;;;;;;7.25;1.80;;;7.20;99.90;;;;;;5131606;27;20487;-57
2023/05/18 00:29:39;;;;;;;7.57;1.80;;;7.10;99.90;;;;;;5131143;27;20070;-56
2023/05/18 00:32:05;;;;;;;8.75;1.70;;;7.10;99.90;;;;;;5131239;27;20039;-57
2023/05/18 00:34:31;;;;;;;11.07;2.97;;;7.10;99.90;;;;;;5131104;27;20035;-55
2023/05/18 00:36:56;;;;;;;11.10;2.20;;;7.10;99.90;;;;;;5131214;28;20092;-57
2023/05/18 00:39:22;;;;;;;7.38;2.03;;;7.10;99.90;;;;;;5131540;28;20035;-55
2023/05/18 00:41:48;;;;;;;6.22;1.70;;;7.00;99.90;;;;;;5131732;28;20086;-56
2023/05/18 00:44:14;;;;;;;10.00;2.00;;;7.10;99.90;;;;;;5131234;28;20036;-56
2023/05/18 00:46:42;;;;;;;8.30;1.90;;;7.10;99.90;;;;;;5131688;28;20035;-53
2023/05/18 00:49:09;;;;;;;10.07;2.03;;;7.00;99.90;;;;;;5131418;28;20050;-56
2023/05/18 00:51:35;;;;;;;13.00;2.88;;;6.90;99.90;;;;;;5131428;28;20482;-55
2023/05/18 00:54:02;;;;;;;9.20;2.13;;;6.90;99.90;;;;;;5131311;28;20039;-57
2023/05/18 00:56:32;;;;;;;8.07;2.13;;;6.90;99.90;;;;;;5112712;28;20046;-54
2023/05/18 00:59:00;;;;;;;6.88;1.80;;;6.90;99.90;;;;;;5130896;28;20046;-55
2023/05/18 01:01:28;;;;;;;8.35;2.13;;;6.90;99.90;;;;;;5131377;27;20420;-55
2023/05/18 01:03:55;;;;;;;9.82;2.08;;;6.80;99.90;;;;;;5130023;28;20035;-55
2023/05/18 01:06:24;;;;;;;9.25;2.45;;;6.70;99.90;;;;;;5131049;28;20054;-57
2023/05/18 01:08:52;;;;;;;8.30;1.88;;;6.70;99.90;;;;;;5131226;28;20054;-57
2023/05/18 01:11:31;;;;;;;8.07;2.10;;;6.70;99.90;;;;;;5131011;28;20063;-54
2023/05/18 01:14:09;;;;;;;8.07;2.15;;;6.70;99.90;;;;;;5131131;28;20070;-58
2023/05/18 01:16:42;;;;;;;9.57;2.50;;;6.70;99.90;;;;;;5131004;28;20035;-55
2023/05/18 01:19:36;;;;;;;14.57;3.13;;;6.60;99.90;;;;;;5131111;28;20058;-56
2023/05/18 01:22:36;;;;;;;9.60;2.78;;;6.60;99.90;;;;;;5129962;28;20046;-54
2023/05/18 01:25:30;;;;;;;7.53;2.90;;;6.60;99.90;;;;;;5130781;28;20413;-56
2023/05/18 01:28:05;;;;;;;9.80;2.70;;;6.60;99.90;;;;;;5130929;28;20538;-54
2023/05/18 01:30:33;;;;;;;15.05;2.85;;;6.60;99.90;;;;;;5130592;28;20035;-55
2023/05/18 01:32:59;;;;;;;9.85;2.80;;;6.60;99.90;;;;;;5131333;28;20467;-56
2023/05/18 01:35:25;;;;;;;13.00;2.58;;;6.60;99.90;;;;;;5130734;28;20055;-55
2023/05/18 01:37:50;;;;;;;13.30;2.70;;;6.60;99.90;;;;;;5130993;27;20080;-56
2023/05/18 01:40:16;;;;;;;9.95;2.50;;;6.60;99.90;;;;;;5130944;28;20575;-57
2023/05/18 01:42:49;;;;;;;8.32;3.10;;;6.60;99.90;;;;;;5130994;27;20478;-58
2023/05/18 01:45:20;;;;;;;9.90;2.72;;;6.50;99.90;;;;;;5116655;27;20043;-56
2023/05/18 01:47:47;;;;;;;10.50;2.85;;;6.60;99.90;;;;;;5134798;27;20482;-54
2023/05/18 01:50:18;;;;;;;11.82;2.72;;;6.60;99.90;;;;;;5134307;27;20434;-57
2023/05/18 01:52:52;;;;;;;10.93;2.60;;;6.60;99.90;;;;;;5134397;27;20635;-56
2023/05/18 01:55:19;;;;;;;10.90;2.63;;;6.50;99.90;;;;;;5098951;27;20050;-55
2023/05/18 01:57:48;;;;;;;9.50;3.00;;;6.50;99.90;;;;;;5134487;27;20119;-54
2023/05/18 02:00:16;;;;;;;9.05;3.20;;;6.50;99.90;;;;;;5134140;27;20050;-56
2023/05/18 02:02:42;;;;;;;6.57;2.70;;;6.50;99.90;;;;;;5134175;27;20035;-54
2023/05/18 02:05:11;;;;;;;9.02;3.05;;;6.50;99.90;;;;;;5134083;27;20027;-57
2023/05/18 02:07:38;;;;;;;13.18;2.80;;;6.50;99.90;;;;;;5134436;27;20083;-55
2023/05/18 02:10:05;;;;;;;9.77;3.55;;;6.50;99.90;;;;;;5115425;27;20073;-55
2023/05/18 02:12:31;;;;;;;8.88;2.00;;;6.50;99.90;;;;;;5134184;27;20046;-57
2023/05/18 02:14:58;;;;;;;7.53;2.17;;;6.40;99.90;;;;;;5133783;27;20051;-57
2023/05/18 02:17:25;;;;;;;6.32;2.40;;;6.40;99.90;;;;;;5115369;27;20050;-56
2023/05/18 02:19:51;;;;;;;9.27;2.40;;;6.40;99.90;;;;;;5133485;27;20054;-54
2023/05/18 02:22:16;;;;;;;8.68;2.50;;;6.40;99.90;;;;;;5133560;27;20035;-57
2023/05/18 02:24:42;;;;;;;10.77;2.75;;;6.40;99.90;;;;;;5133741;27;20379;-56
2023/05/18 02:27:08;;;;;;;7.03;2.67;;;6.40;99.90;;;;;;5133866;27;20039;-59
2023/05/18 02:29:33;;;;;;;7.60;2.10;;;6.40;99.90;;;;;;5133473;27;20434;-57
2023/05/18 02:31:59;;;;;;;7.35;2.47;;;6.30;99.90;;;;;;5133930;27;20504;-57
2023/05/18 02:34:26;;;;;;;8.45;2.38;;;6.30;99.90;;;;;;5133657;27;20135;-58
2023/05/18 02:36:52;;;;;;;9.73;2.88;;;6.20;99.90;;;;;;5114902;27;20047;-56
2023/05/18 02:39:18;;;;;;;8.90;2.13;;;6.00;99.90;;;;;;5133680;27;20039;-57
2023/05/18 02:41:43;;;;;;;7.97;2.40;;;6.10;99.90;;;;;;5133834;27;20453;-54
2023/05/18 02:44:11;;;;;;;8.00;2.67;;;6.10;99.90;;;;;;5133248;27;20046;-57
2023/05/18 02:46:36;;;;;;;8.20;2.25;;;6.10;99.90;;;;;;5114833;27;20069;-55
2023/05/18 02:49:02;;;;;;;11.80;2.20;;;6.10;99.90;;;;;;5133515;27;20038;-54
2023/05/18 02:51:29;;;;;;;9.65;2.45;;;6.00;99.90;;;;;;5115154;27;20424;-54
2023/05/18 02:53:54;;;;;;;9.68;2.33;;;6.00;99.90;;;;;;5133381;27;20031;-58
2023/05/18 02:56:20;;;;;;;9.07;2.47;;;5.90;99.90;;;;;;5133515;27;20039;-56
2023/05/18 02:58:46;;;;;;;8.10;2.30;;;5.90;99.90;;;;;;5132748;27;20031;-53
2023/05/18 03:01:12;;;;;;;8.30;2.60;;;5.90;99.90;;;;;;5133498;27;20050;-57
2023/05/18 03:03:40;;;;;;;10.75;2.60;;;5.90;99.90;;;;;;5132939;27;20035;-52
2023/05/18 03:06:08;;;;;;;7.95;2.55;;;5.90;99.90;;;;;;5114481;27;20047;-52
2023/05/18 03:08:35;;;;;;;6.22;2.40;;;5.80;99.90;;;;;;5133047;27;20603;-58
2023/05/18 03:11:01;;;;;;;8.48;2.55;;;5.80;99.90;;;;;;5133151;27;20042;-53
2023/05/18 03:13:27;;;;;;;7.20;2.50;;;5.80;99.90;;;;;;5132920;27;20550;-56
2023/05/18 03:15:55;;;;;;;6.07;2.53;;;5.70;99.90;;;;;;5132826;27;20523;-56
2023/05/18 03:18:21;;;;;;;10.10;2.88;;;5.40;99.90;;;;;;5113972;27;20046;-55
2023/05/18 03:20:48;;;;;;;10.20;2.85;;;5.40;99.90;;;;;;5132982;27;20055;-55
2023/05/18 03:23:14;;;;;;;9.15;2.72;;;5.50;99.90;;;;;;5132587;27;20039;-57
2023/05/18 03:25:42;;;;;;;11.82;2.70;;;5.40;99.90;;;;;;5114305;27;20031;-57
2023/05/18 03:28:07;;;;;;;9.05;3.40;;;5.70;99.90;;;;;;5132613;27;20082;-55
2023/05/18 03:30:33;;;;;;;7.25;2.40;;;5.50;99.90;;;;;;5131981;27;20077;-54
2023/05/18 03:33:00;;;;;;;8.65;2.72;;;5.50;99.90;;;;;;5132512;27;20031;-52
2023/05/18 03:35:26;;;;;;;8.05;2.40;;;5.40;99.90;;;;;;5113786;27;20047;-53
2023/05/18 03:37:52;;;;;;;11.07;2.92;;;5.50;99.90;;;;;;5132347;27;20031;-58
2023/05/18 03:40:19;;;;;;;14.00;2.53;;;5.60;99.90;;;;;;5132437;27;20477;-55
2023/05/18 03:42:45;;;;;;;10.43;2.58;;;5.50;99.90;;;;;;5132493;27;20397;-59
2023/05/18 03:45:11;;;;;;;7.90;2.58;;;5.70;99.90;;;;;;5132401;27;20035;-57
2023/05/18 03:47:38;;;;;;;10.15;3.10;;;5.60;99.90;;;;;;5131946;27;20047;-57
2023/05/18 03:50:05;;;;;;;11.02;2.63;;;5.50;99.90;;;;;;5132221;27;20039;-53
2023/05/18 03:52:35;;;;;;;13.00;3.38;;;5.50;99.90;;;;;;5132368;27;20035;-55
2023/05/18 03:55:01;;;;;;;11.07;2.75;;;5.60;99.90;;;;;;5132574;27;20437;-57
2023/05/18 03:57:30;;;;;;;9.45;3.05;;;5.60;99.90;;;;;;5132196;27;20563;-55
2023/05/18 03:59:57;;;;;;;9.50;3.00;;;6.10;99.90;;;;;;5131844;27;20039;-56
2023/05/18 04:02:23;;;;;;;10.85;3.33;;;5.70;99.90;;;;;;5131693;27;20371;-57
2023/05/18 04:04:52;;;;;;;11.82;2.97;;;5.90;99.90;;;;;;5113190;27;20490;-57
2023/05/18 04:07:21;;;;;;;8.43;3.15;;;5.90;99.90;;;;;;5132153;27;20168;-58
2023/05/18 04:09:47;;;;;;;9.48;2.95;;;6.10;99.90;;;;;;5131986;27;20050;-55
2023/05/18 04:12:13;;;;;;;10.23;3.15;;;6.00;99.90;;;;;;5131673;27;20050;-57
2023/05/18 04:14:42;;;;;;;8.27;2.88;;;6.60;99.90;;;;;;5113189;27;20060;-55
2023/05/18 04:17:08;;;;;;;13.27;3.90;;;6.30;99.90;;;;;;5131678;27;20094;-55
2023/05/18 04:19:35;;;;;;;12.45;3.35;;;6.10;99.90;;;;;;5131733;27;20035;-58
2023/05/18 04:22:03;;;;;;;11.70;3.17;;;6.70;99.90;;;;;;5131643;27;20041;-56
2023/05/18 04:24:31;;;;;;;10.68;3.03;;;6.30;99.90;;;;;;5131936;27;20031;-56
2023/05/18 04:26:58;;;;;;;10.15;3.13;;;6.70;99.90;;;;;;5131565;27;20043;-58
2023/05/18 04:29:24;;;;;;;12.35;2.95;;;6.40;99.90;;;;;;5131296;27;20035;-57
2023/05/18 04:31:49;;;;;;;9.45;3.40;;;6.30;99.90;;;;;;5131699;27;20381;-56
2023/05/18 04:34:16;;;;;;;9.73;2.97;;;6.80;99.90;;;;;;5131608;27;20035;-54
2023/05/18 04:36:43;;;;;;;8.48;3.33;;;6.80;99.90;;;;;;5131257;27;20090;-55
2023/05/18 04:39:09;;;;;;;10.80;3.25;;;6.90;99.90;;;;;;5131288;28;20039;-56
2023/05/18 04:41:35;;;;;;;11.00;4.15;;;6.50;99.90;;;;;;5131729;28;20486;-54
2023/05/18 04:44:02;;;;;;;10.68;3.05;;;7.00;99.90;;;;;;5131527;27;20464;-58
2023/05/18 04:46:29;;;;;;;9.68;3.20;;;6.60;99.90;;;;;;5131645;28;20035;-57
2023/05/18 04:48:56;;;;;;;10.05;3.05;;;6.50;99.90;;;;;;5129992;28;20168;-56
2023/05/18 04:51:23;;;;;;;12.68;3.63;;;6.80;99.90;;;;;;5131305;28;20043;-55
2023/05/18 04:53:49;;;;;;;14.25;3.58;;;6.60;99.90;;;;;;5131498;28;20039;-58
2023/05/18 04:56:16;;;;;;;10.48;3.00;;;6.90;99.90;;;;;;5131199;28;20118;-57
2023/05/18 04:58:46;;;;;;;12.43;3.45;;;7.00;99.90;;;;;;5130618;28;20031;-55
2023/05/18 05:01:16;;;;;;;12.68;3.20;;;6.80;99.90;;;;;;5112935;28;20088;-56
2023/05/18 05:03:42;;;;;;;9.18;2.92;;;6.90;99.90;;;;;;5131101;28;20103;-57
2023/05/18 05:06:08;;;;;;;7.55;2.97;;;6.80;99.90;;;;;;5131341;28;20050;-55
2023/05/18 05:08:35;;;;;;;12.10;3.88;;;6.70;99.90;;;;;;5131124;28;20096;-56
2023/05/18 05:11:01;;;;;;;11.15;3.50;;;6.60;99.90;;;;;;5131553;28;20038;-54
2023/05/18 05:13:27;;;;;;;9.73;3.17;;;7.20;99.90;;;;;;5131323;28;20038;-56
2023/05/18 05:15:53;;;;;;;12.20;3.00;;;7.30;99.90;;;;;;5131425;27;20031;-55
2023/05/18 05:18:19;;;;;;;8.50;3.00;;;7.00;99.90;;;;;;5133985;27;20039;-56
2023/05/18 05:20:44;;;;;;;8.55;2.83;;;7.60;99.90;;;;;;5117013;27;20054;-58
2023/05/18 05:23:10;;;;;;;10.18;2.60;;;7.20;99.90;;;;;;5134920;27;20035;-56
2023/05/18 05:25:36;;;;;;;9.45;2.80;;;7.60;99.90;;;;;;5116918;27;20065;-56
2023/05/18 05:28:01;;;;;;;11.45;2.97;;;7.30;99.90;;;;;;5135112;27;20039;-57
2023/05/18 05:30:27;;;;;;;7.35;2.75;;;7.00;99.90;;;;;;5116210;27;20043;-53
2023/05/18 05:32:53;;;;;;;6.93;2.58;;;7.40;99.90;;;;;;5135091;27;20039;-53
2023/05/18 05:35:19;;;;;;;9.93;3.00;;;7.10;99.90;;;;;;5134424;27;20454;-54
2023/05/18 05:37:45;;;;;;;14.18;3.55;;;7.30;99.90;;;;;;5135057;27;20035;-58
2023/05/18 05:40:11;;;;;;;5.47;2.55;;;7.30;99.90;;;;;;5134921;27;20102;-58
2023/05/18 05:42:36;;;;;;;10.73;2.72;;;7.20;99.90;;;;;;5134779;27;20035;-58
2023/05/18 05:45:02;;;;;;;12.32;3.10;;;7.40;99.90;;;;;;5134281;27;20068;-57
2023/05/18 05:47:28;;;;;;;11.15;2.85;;;7.20;99.90;;;;;;5115261;27;20035;-59
2023/05/18 05:49:54;;;;;;;9.57;3.17;;;7.60;99.90;;;;;;5134631;27;20038;-56
2023/05/18 05:52:20;;;;;;;14.02;2.92;;;7.20;99.90;;;;;;5134074;27;20037;-59
2023/05/18 05:54:46;;;;;;;8.02;2.75;;;7.70;99.90;;;;;;5134230;27;20027;-55
2023/05/18 05:57:11;;;;;;;9.68;2.90;;;7.70;99.90;;;;;;5134030;27;20034;-54
2023/05/18 05:59:37;;;;;;;11.88;2.70;;;7.80;99.90;;;;;;5133917;27;20058;-54
2023/05/18 06:02:03;;;;;;;7.00;2.60;;;7.80;99.90;;;;;;5134214;27;20039;-55
2023/05/18 06:04:28;;;;;;;10.05;2.80;;;7.60;99.90;;;;;;5134324;27;20493;-58
2023/05/18 06:06:54;;;;;;;6.40;2.47;;;7.80;99.90;;;;;;5134433;27;20038;-56
2023/05/18 06:09:20;;;;;;;7.97;2.60;;;8.20;99.90;;;;;;5134352;27;20039;-56
2023/05/18 06:11:45;;;;;;;10.82;2.85;;;8.20;99.90;;;;;;5134308;27;20117;-56
2023/05/18 06:14:11;;;;;;;10.93;2.25;;;8.30;99.90;;;;;;5134306;27;20039;-57
2023/05/18 06:16:37;;;;;;;8.35;2.72;;;8.30;99.90;;;;;;5133684;27;20506;-55
2023/05/18 06:19:03;;;;;;;10.27;2.42;;;8.20;99.90;;;;;;5115555;27;20082;-54
2023/05/18 06:21:28;;;;;;;10.10;3.42;;;8.60;99.90;;;;;;5133962;27;20070;-55
2023/05/18 06:23:55;;;;;;;6.63;2.90;;;8.60;99.90;;;;;;5133795;27;20174;-56
2023/05/18 06:26:21;;;;;;;9.30;2.92;;;8.60;99.90;;;;;;5133753;27;20043;-58
2023/05/18 06:28:48;;;;;;;7.45;2.15;;;8.70;99.90;;;;;;5097796;27;20057;-56
2023/05/18 06:31:15;;;;;;;11.82;2.15;;;8.70;99.90;;;;;;5114989;27;20035;-56
2023/05/18 06:33:41;;;;;;;9.45;2.17;;;8.60;99.90;;;;;;5134031;27;20075;-54
2023/05/18 06:36:07;;;;;;;7.68;2.22;;;8.80;99.90;;;;;;5133215;27;20086;-57
2023/05/18 06:38:33;;;;;;;11.15;2.00;;;8.60;99.90;;;;;;5133798;27;20034;-58
2023/05/18 06:40:58;;;;;;;8.90;2.25;;;9.00;99.90;;;;;;5133698;27;20038;-59
2023/05/18 06:43:25;;;;;;;10.40;2.35;;;9.00;99.90;;;;;;5133879;27;20111;-56
2023/05/18 06:45:51;;;;;;;10.27;2.10;;;8.90;99.90;;;;;;5133275;27;20039;-55
2023/05/18 06:48:17;;;;;;;8.27;2.35;;;9.20;99.90;;;;;;5133472;27;20045;-56
2023/05/18 06:50:42;;;;;;;11.73;2.55;;;9.10;99.90;;;;;;5133046;27;20039;-53
2023/05/18 06:53:08;;;;;;;8.35;2.17;;;9.10;99.90;;;;;;5133433;27;20046;-55
2023/05/18 06:55:34;;;;;;;6.53;1.92;;;9.30;99.90;;;;;;5133184;27;20078;-58
2023/05/18 06:58:01;;;;;;;8.18;2.15;;;9.40;99.90;;;;;;5133703;27;20474;-57
2023/05/18 07:00:27;;;;;;;7.18;1.73;;;9.40;99.90;;;;;;5132778;27;20039;-58
2023/05/18 07:02:53;;;;;;;10.82;2.40;;;9.50;99.90;;;;;;5133057;27;20436;-55
2023/05/18 07:05:18;;;;;;;8.85;2.13;;;9.50;99.90;;;;;;5133157;27;20043;-56
2023/05/18 07:07:44;;;;;;;10.15;1.70;;;9.80;99.90;;;;;;5114618;27;20035;-58
2023/05/18 07:10:10;;;;;;;7.97;2.20;;;9.60;99.90;;;;;;5114426;27;20042;-56
2023/05/18 07:12:35;;;;;;;11.32;1.95;;;9.80;99.90;;;;;;5133107;27;20477;-55
2023/05/18 07:15:03;;;;;;;7.80;1.80;;;9.70;99.90;;;;;;5114509;27;20039;-57
2023/05/18 07:17:28;;;;;;;7.50;1.75;;;9.70;99.90;;;;;;5133219;27;20027;-57
2023/05/18 07:19:54;;;;;;;9.52;1.98;;;9.90;99.90;;;;;;5132864;27;20068;-57
2023/05/18 07:22:20;;;;;;;7.88;2.50;;;9.80;99.90;;;;;;5114778;27;20486;-56
2023/05/18 07:24:45;;;;;;;12.55;2.50;;;10.00;99.90;;;;;;5132738;27;20024;-56
2023/05/18 07:27:11;;;;;;;8.23;2.22;;;9.80;99.90;;;;;;5132787;27;20035;-57
2023/05/18 07:29:37;;;;;;;6.05;1.95;;;9.80;99.90;;;;;;5132311;27;20108;-58
2023/05/18 07:32:03;;;;;;;7.47;2.58;;;9.90;99.90;;;;;;5132617;27;20509;-58
2023/05/18 07:34:30;;;;;;;9.45;2.25;;;9.80;99.90;;;;;;5113922;27;20050;-55
2023/05/18 07:36:56;;;;;;;8.73;2.20;;;10.00;99.90;;;;;;5132277;27;20055;-55
2023/05/18 07:39:27;;;;;;;8.98;2.20;;;9.80;99.90;;;;;;5131996;27;20042;-55
2023/05/18 07:41:53;;;;;;;8.45;2.13;;;9.80;99.90;;;;;;5132468;27;20096;-56
2023/05/18 07:44:19;;;;;;;15.07;2.45;;;9.80;99.90;;;;;;5132527;27;20496;-54
2023/05/18 07:46:44;;;;;;;14.35;2.35;;;9.80;99.90;;;;;;5132629;27;20032;-57
2023/05/18 07:49:10;;;;;;;7.68;1.80;;;9.90;99.90;;;;;;5132224;27;20045;-54
2023/05/18 07:51:36;;;;;;;6.82;1.92;;;10.00;99.90;;;;;;5132331;27;20027;-57
2023/05/18 07:54:02;;;;;;;5.60;2.00;;;10.10;99.90;;;;;;5132269;27;20397;-53
2023/05/18 07:56:28;;;;;;;10.20;1.90;;;9.90;99.90;;;;;;5132282;27;20042;-52
2023/05/18 07:58:53;;;;;;;9.68;1.90;;;9.90;99.90;;;;;;5113320;27;20047;-55
2023/05/18 08:01:20;;;;;;;7.10;2.13;;;10.10;99.90;;;;;;5131963;27;20037;-54
2023/05/18 08:03:46;;;;;;;8.77;2.40;;;9.90;99.90;;;;;;5132004;27;20474;-57
2023/05/18 08:06:12;;;;;;;10.73;1.90;;;10.10;99.90;;;;;;5132078;27;20135;-57
2023/05/18 08:08:38;;;;;;;9.02;1.92;;;10.00;99.90;;;;;;5113082;27;20042;-57
2023/05/18 08:11:04;;;;;;;7.10;1.95;;;10.10;99.90;;;;;;5132023;27;20083;-57
2023/05/18 08:13:30;;;;;;;8.75;1.95;;;10.20;99.90;;;;;;5113259;27;20092;-56
2023/05/18 08:15:55;;;;;;;8.32;2.70;;;10.40;99.90;;;;;;5131846;27;20398;-54
2023/05/18 08:18:21;;;;;;;11.07;2.08;;;10.40;99.90;;;;;;5132033;27;20038;-53
2023/05/18 08:20:52;;;;;;;7.00;1.90;;;10.50;99.90;;;;;;5113613;27;20035;-55
2023/05/18 08:23:18;;;;;;;9.05;2.13;;;10.50;99.90;;;;;;5131816;27;20478;-56
2023/05/18 08:25:44;;;;;;;8.20;1.92;;;10.60;99.90;;;;;;5131845;27;20035;-58
2023/05/18 08:28:10;;;;;;;9.10;1.85;;;10.70;99.90;;;;;;5131286;27;20509;-56
2023/05/18 08:30:35;;;;;;;8.23;2.33;;;10.80;99.90;;;;;;5131373;27;20039;-56
2023/05/18 08:33:01;;;;;;;10.25;2.55;;;10.80;99.90;;;;;;5131798;28;20046;-55
2023/05/18 08:35:28;;;;;;;9.82;2.22;;;11.00;99.90;;;;;;5131536;27;20051;-57
2023/05/18 08:37:54;;;;;;;12.07;2.13;;;11.00;99.90;;;;;;5131645;27;20114;-57
2023/05/18 08:40:19;;;;;;;9.95;1.88;;;11.10;99.90;;;;;;5131604;28;20455;-59
2023/05/18 08:43:09;;;;;;;9.90;2.38;;;11.20;99.90;;;;;;5131385;28;20039;-57
2023/05/18 08:45:40;;;;;;;9.73;2.20;;;11.20;99.90;;;;;;5131458;27;20047;-58
2023/05/18 08:48:06;;;;;;;11.10;2.38;;;11.30;99.90;;;;;;5131569;28;20473;-53
2023/05/18 08:50:34;;;;;;;10.55;2.28;;;11.30;99.90;;;;;;5131245;28;20059;-56
2023/05/18 08:53:04;;;;;;;8.57;2.15;;;11.40;99.90;;;;;;5135749;27;20035;-59
2023/05/18 08:55:35;;;;;;;9.43;2.20;;;11.30;99.90;;;;;;5135699;27;20478;-56
2023/05/18 08:58:02;;;;;;;7.13;2.47;;;11.50;99.90;;;;;;5135640;27;20039;-59
2023/05/18 09:00:28;;;;;;;8.18;2.25;;;11.40;99.90;;;;;;5135156;27;20080;-58
2023/05/18 09:02:55;;;;;;;7.85;2.45;;;11.50;99.90;;;;;;5135938;27;20031;-57
2023/05/18 09:05:22;;;;;;;5.82;1.90;;;11.60;99.90;;;;;;5135594;27;20030;-58
2023/05/18 09:07:51;;;;;;;6.90;1.90;;;11.60;99.90;;;;;;5135540;27;20039;-56
2023/05/18 09:10:17;;;;;;;12.85;2.10;;;11.60;99.90;;;;;;5135502;27;20123;-57
2023/05/18 09:12:45;;;;;;;8.18;1.95;;;11.80;99.90;;;;;;5135291;27;20050;-55
2023/05/18 09:15:16;;;;;;;10.93;2.35;;;11.80;99.90;;;;;;5135130;27;20047;-56
2023/05/18 09:17:42;;;;;;;8.98;2.30;;;11.90;99.90;;;;;;5135730;27;20045;-56
2023/05/18 09:20:09;;;;;;;10.45;2.50;;;11.80;99.90;;;;;;5135291;27;20027;-58
2023/05/18 09:22:35;;;;;;;7.32;1.90;;;11.60;99.90;;;;;;5135436;27;20051;-56
2023/05/18 09:25:07;;;;;;;8.35;2.28;;;11.80;99.90;;;;;;5135198;27;20031;-57
2023/05/18 09:27:33;;;;;;;11.05;2.25;;;11.70;99.90;;;;;;5117293;27;20376;-53
2023/05/18 09:29:59;;;;;;;8.68;2.63;;;11.70;99.90;;;;;;5134398;27;20050;-55
2023/05/18 09:32:25;;;;;;;8.75;2.03;;;11.70;99.90;;;;;;5134907;27;20492;-58
2023/05/18 09:34:51;;;;;;;7.55;1.98;;;11.80;99.90;;;;;;5134943;27;20031;-56
2023/05/18 09:37:18;;;;;;;9.07;2.30;;;11.90;99.90;;;;;;5133498;27;20405;-57
2023/05/18 09:39:56;;;;;;;8.88;2.28;;;12.00;99.90;;;;;;5116263;27;20043;-56
2023/05/18 09:42:26;;;;;;;9.63;2.20;;;12.10;99.90;;;;;;5118201;27;20051;-52
2023/05/18 09:44:53;;;;;;;9.75;2.47;;;12.20;99.90;;;;;;5134981;27;20700;-56
2023/05/18 09:47:18;;;;;;;11.02;2.47;;;12.30;99.90;;;;;;5134612;27;20031;-56
2023/05/18 09:49:45;;;;;;;6.55;1.88;;;12.50;99.90;;;;;;5134614;27;20122;-54
2023/05/18 09:52:11;;;;;;;11.48;2.25;;;12.50;99.90;;;;;;5134789;27;20474;-55
2023/05/18 09:54:36;;;;;;;7.35;1.98;;;12.60;99.90;;;;;;5134247;27;20039;-54
2023/05/18 09:57:03;;;;;;;10.30;3.00;;;12.80;99.90;;;;;;5134648;27;20080;-54
2023/05/18 09:59:30;;;;;;;8.50;2.00;;;13.00;99.90;;;;;;5115930;27;20046;-57
2023/05/18 10:02:01;;;;;;;9.55;1.92;;;13.20;99.90;;;;;;5134613;27;20043;-57
2023/05/18 10:04:37;;;;;;;6.32;2.10;;;13.50;99.90;;;;;;5133441;27;20051;-57
2023/05/18 10:07:12;;;;;;;8.57;2.28;;;13.60;99.90;;;;;;5134657;27;20039;-55
2023/05/18 10:09:43;;;;;;;6.80;2.13;;;13.80;99.90;;;;;;5133945;27;21442;-56
2023/05/18 10:12:13;;;;;;;12.48;2.45;;;14.00;99.90;;;;;;5134322;27;20089;-56
2023/05/18 10:14:42;;;;;;;6.57;2.35;;;14.10;99.90;;;;;;5134208;27;20485;-57
2023/05/18 10:17:13;;;;;;;8.88;2.22;;;14.00;99.90;;;;;;5134285;27;20051;-59
2023/05/18 10:19:40;;;;;;;5.80;1.88;;;14.00;99.90;;;;;;5133959;27;20039;-57
2023/05/18 10:22:07;;;;;;;8.50;2.55;;;14.00;99.90;;;;;;5133921;27;20042;-52
2023/05/18 10:24:40;;;;;;;7.00;1.88;;;14.00;99.90;;;;;;5133746;27;20100;-56
2023/05/18 10:27:08;;;;;;;9.48;2.13;;;14.10;99.90;;;;;;5133790;27;20390;-58
2023/05/18 10:29:36;;;;;;;6.80;2.15;;;14.20;99.90;;;;;;5133656;27;20033;-56
2023/05/18 10:32:05;;;;;;;11.13;2.47;;;14.30;99.20;;;;;;5133639;27;20504;-57
2023/05/18 10:34:32;;;;;;;12.57;2.90;;;14.20;98.90;;;;;;5133680;27;20035;-59
2023/05/18 10:37:03;;;;;;;9.20;2.03;;;14.00;99.50;;;;;;5133661;27;20494;-57
2023/05/18 10:39:32;;;;;;;10.20;2.10;;;14.00;99.60;;;;;;5133302;27;20031;-57
2023/05/18 10:42:00;;;;;;;7.97;1.98;;;14.40;99.40;;;;;;5115361;27;20039;-56
2023/05/18 10:44:26;;;;;;;7.25;2.55;;;14.50;99.50;;;;;;5133704;27;20078;-58
2023/05/18 10:46:52;;;;;;;10.07;2.30;;;14.70;99.50;;;;;;5133323;27;20443;-58
2023/05/18 10:49:23;;;;;;;11.15;2.40;;;14.80;99.40;;;;;;5133965;27;20534;-59
2023/05/18 10:51:53;;;;;;;7.75;2.47;;;14.90;99.30;;;;;;5133338;27;20070;-53
2023/05/18 10:54:22;;;;;;;6.88;2.10;;;14.90;99.50;;;;;;5133724;27;20027;-58
2023/05/18 10:56:51;;;;;;;6.18;1.98;;;15.10;99.40;;;;;;5133285;27;20541;-57
2023/05/18 10:59:18;;;;;;;8.38;2.42;;;15.10;99.00;;;;;;5132812;27;20035;-57
2023/05/18 11:01:46;;;;;;;8.55;2.17;;;15.20;99.00;;;;;;5114821;27;20058;-59
2023/05/18 11:04:12;;;;;;;6.03;2.00;;;15.30;99.00;;;;;;5133540;27;20109;-57
2023/05/18 11:06:38;;;;;;;7.40;2.30;;;15.40;99.00;;;;;;5133197;27;20106;-57
2023/05/18 11:09:04;;;;;;;6.82;1.83;;;15.50;98.60;;;;;;5133204;27;20054;-56
2023/05/18 11:11:54;;;;;;;8.75;2.17;;;15.60;98.30;;;;;;5114511;27;20034;-57
2023/05/18 11:14:28;;;;;;;6.85;2.13;;;15.60;98.30;;;;;;5132458;27;20035;-57
2023/05/18 11:17:14;;;;;;;6.15;1.60;;;15.80;98.10;;;;;;5132267;27;20039;-59
2023/05/18 11:19:39;;;;;;;7.78;2.05;;;16.00;98.50;;;;;;5133069;27;20027;-55
2023/05/18 11:22:11;;;;;;;8.63;2.10;;;16.20;98.60;;;;;;5132841;27;20780;-58
2023/05/18 11:24:39;;;;;;;9.45;2.40;;;16.40;98.70;;;;;;5114363;27;20043;-57
2023/05/18 11:27:15;;;;;;;6.63;2.15;;;16.70;98.30;;;;;;5132893;27;20062;-58
2023/05/18 11:29:46;;;;;;;8.10;1.98;;;16.80;97.70;;;;;;5132064;27;20063;-58
2023/05/18 11:32:28;;;;;;;8.55;2.15;;;16.90;98.30;;;;;;5132643;27;20043;-56
2023/05/18 11:34:55;;;;;;;10.73;2.22;;;17.20;97.30;;;;;;5132012;27;20053;-56
2023/05/18 11:37:39;;;;;;;7.95;1.98;;;17.20;97.70;;;;;;5132048;27;20119;-55
2023/05/18 11:40:08;;;;;;;8.70;2.38;;;17.30;97.20;;;;;;5132565;27;20047;-57
2023/05/18 11:42:34;;;;;;;5.95;1.73;;;17.30;97.80;;;;;;5132019;27;20042;-56
2023/05/18 11:45:08;;;;;;;8.32;2.38;;;17.40;97.20;;;;;;5113990;27;20042;-58
2023/05/18 11:47:35;;;;;;;7.78;2.10;;;17.50;96.80;;;;;;5131962;27;20031;-55
2023/05/18 11:50:01;;;;;;;6.25;2.25;;;17.50;96.90;;;;;;5113601;27;20078;-56
2023/05/18 11:52:28;;;;;;;9.40;2.20;;;17.50;96.70;;;;;;5131960;27;20080;-55
2023/05/18 11:54:58;;;;;;;9.70;2.00;;;17.50;96.60;;;;;;5131744;27;20110;-57
2023/05/18 11:57:40;;;;;;;5.53;1.95;;;17.50;96.70;;;;;;5132009;27;20118;-56
2023/05/18 12:00:09;;;;;;;7.10;2.30;;;17.60;96.50;;;;;;5131389;27;20066;-58
2023/05/18 12:02:35;;;;;;;8.05;2.88;;;17.70;96.10;;;;;;5132302;27;20335;-57
2023/05/18 12:05:05;;;;;;;9.98;2.03;;;17.60;96.30;;;;;;5132285;27;20057;-57
2023/05/18 12:07:32;;;;;;;8.77;2.50;;;17.50;96.00;;;;;;5132047;27;20035;-59
2023/05/18 12:10:07;;;;;;;8.43;1.90;;;17.50;96.10;;;;;;5131992;27;20051;-57
2023/05/18 12:12:33;;;;;;;6.45;1.95;;;17.70;95.90;;;;;;5131853;27;20106;-59
2023/05/18 12:15:00;;;;;;;10.02;2.40;;;17.70;96.00;;;;;;5113427;27;20042;-56
2023/05/18 12:17:40;;;;;;;8.93;2.40;;;17.80;95.50;;;;;;5131806;27;20031;-56
2023/05/18 12:20:11;;;;;;;8.27;2.30;;;17.90;95.70;;;;;;5131709;27;20035;-57
2023/05/18 12:22:51;;;;;;;6.65;2.00;;;18.10;95.60;;;;;;5113306;27;20050;-55
2023/05/18 12:25:18;;;;;;;6.05;2.13;;;18.20;95.40;;;;;;5131245;27;20027;-58
2023/05/18 12:27:46;;;;;;;6.57;1.85;;;18.40;95.60;;;;;;5131424;27;20490;-56
2023/05/18 12:30:16;;;;;;;6.32;1.92;;;18.40;95.30;;;;;;5130971;27;20077;-57
2023/05/18 12:32:50;;;;;;;8.73;1.92;;;18.50;94.80;;;;;;5131262;27;20046;-55
2023/05/18 12:35:16;;;;;;;7.53;2.20;;;18.60;94.50;;;;;;5131306;27;20579;-56
2023/05/18 12:37:44;;;;;;;10.38;2.67;;;18.70;94.90;;;;;;5112852;28;20046;-55
2023/05/18 12:40:20;;;;;;;8.25;2.30;;;18.90;94.30;;;;;;5131811;28;20056;-58
2023/05/18 12:42:53;;;;;;;7.18;2.17;;;18.90;94.20;;;;;;5131600;28;20045;-56
2023/05/18 12:45:23;;;;;;;7.57;2.10;;;19.10;93.40;;;;;;5130997;28;20035;-56
2023/05/18 12:47:53;;;;;;;10.35;2.20;;;19.30;94.00;;;;;;5131044;28;20035;-57
2023/05/18 12:50:19;;;;;;;8.10;2.30;;;19.50;93.90;;;;;;5130945;28;20068;-56
2023/05/18 12:52:46;;;;;;;8.15;2.10;;;19.70;93.10;;;;;;5131459;28;20084;-55